Time;durP1;ratioP1;P1;durP2;ratioP2;P2;SDS_P1;SDS_P2;PMS_P1;PMS_P2;Temp;Humidity;BMP_temperature;BMP_pressure;BME280_temperature;BME280_humidity;BME280_pressure;Samples;Min_cycle;Max_cycle;Signal;HPM_P1;HPM_P2
2021/12/06 00:01:20;;;;;;;22.58;12.55;;;-0.50;99.90;;;;;;5075702;28;20028;-83
2021/12/06 00:03:52;;;;;;;24.02;10.18;;;-0.40;99.90;;;;;;5067207;28;20078;-83
2021/12/06 00:06:21;;;;;;;24.98;10.85;;;-0.40;99.90;;;;;;5051081;28;20030;-85
2021/12/06 00:08:47;;;;;;;25.02;8.63;;;-0.40;99.90;;;;;;5062309;28;20111;-84
2021/12/06 00:11:14;;;;;;;19.92;9.13;;;-0.40;99.90;;;;;;5064052;28;20123;-80
2021/12/06 00:13:42;;;;;;;23.92;11.35;;;-0.40;99.90;;;;;;5067713;28;20029;-81
2021/12/06 00:16:14;;;;;;;23.00;10.23;;;-0.30;99.90;;;;;;5064396;28;21592;-80
2021/12/06 00:18:40;;;;;;;27.42;11.18;;;-0.30;99.90;;;;;;5063535;28;20048;-81
2021/12/06 00:21:07;;;;;;;26.58;11.80;;;-0.20;99.90;;;;;;5065771;28;20483;-79
2021/12/06 00:23:32;;;;;;;31.05;11.63;;;-0.20;99.90;;;;;;5063558;28;20029;-83
2021/12/06 00:25:59;;;;;;;24.83;10.77;;;-0.20;99.90;;;;;;5067483;28;20039;-83
2021/12/06 00:28:25;;;;;;;26.85;11.30;;;-0.10;99.90;;;;;;5065172;28;20304;-84
2021/12/06 00:30:51;;;;;;;26.58;11.05;;;-0.10;99.90;;;;;;5063175;28;20033;-78
2021/12/06 00:33:17;;;;;;;29.25;11.93;;;-0.10;99.90;;;;;;5066413;28;20047;-82
2021/12/06 00:35:43;;;;;;;31.08;11.85;;;0.00;99.90;;;;;;5045336;28;20072;-81
2021/12/06 00:38:10;;;;;;;27.63;11.93;;;0.00;99.90;;;;;;5060687;28;20091;-79
2021/12/06 00:40:42;;;;;;;34.78;13.73;;;0.00;99.90;;;;;;5049094;28;20033;-81
2021/12/06 00:43:08;;;;;;;36.38;13.10;;;0.00;99.90;;;;;;5045023;28;20025;-82
2021/12/06 00:45:34;;;;;;;31.90;10.70;;;0.00;99.90;;;;;;5065834;28;20056;-80
2021/12/06 00:48:01;;;;;;;27.73;11.35;;;0.00;99.90;;;;;;5061011;28;20060;-81
2021/12/06 00:50:29;;;;;;;29.95;12.43;;;0.00;99.90;;;;;;5067846;28;20525;-81
2021/12/06 00:52:55;;;;;;;33.60;12.70;;;0.00;99.90;;;;;;5065458;28;20496;-80
2021/12/06 00:55:21;;;;;;;35.45;12.60;;;0.00;99.90;;;;;;5045521;28;20031;-83
2021/12/06 00:57:49;;;;;;;41.05;14.00;;;0.10;99.90;;;;;;5047666;28;20033;-80
2021/12/06 01:00:35;;;;;;;29.77;13.75;;;0.20;99.90;;;;;;5063260;28;20035;-81
2021/12/06 01:03:05;;;;;;;35.05;13.25;;;0.20;99.90;;;;;;5061765;28;20033;-81
2021/12/06 01:05:31;;;;;;;36.30;15.10;;;0.30;99.90;;;;;;5062232;28;20028;-81
2021/12/06 01:07:57;;;;;;;33.60;12.98;;;0.30;99.90;;;;;;5047314;28;20580;-79
2021/12/06 01:10:26;;;;;;;32.72;12.30;;;0.20;99.90;;;;;;5065530;28;20082;-82
2021/12/06 01:12:52;;;;;;;30.02;12.95;;;0.20;99.90;;;;;;5065672;28;20025;-80
2021/12/06 01:15:18;;;;;;;35.67;13.00;;;0.20;99.90;;;;;;5062046;28;20046;-80
2021/12/06 01:17:45;;;;;;;35.28;14.73;;;0.10;99.90;;;;;;5060348;28;20488;-82
2021/12/06 01:20:14;;;;;;;32.30;12.75;;;0.20;99.90;;;;;;5065390;28;20134;-82
2021/12/06 01:22:48;;;;;;;31.05;13.05;;;0.10;99.90;;;;;;5064230;28;20044;-78
2021/12/06 01:28:30;;;;;;;29.08;13.45;;;0.00;99.90;;;;;;5062702;28;20051;-80
2021/12/06 01:41:27;;;;;;;26.65;9.82;;;-0.10;99.90;;;;;;5065638;28;20518;-79
2021/12/06 01:44:14;;;;;;;22.83;10.23;;;0.00;99.90;;;;;;5063142;28;20085;-81
2021/12/06 01:46:53;;;;;;;28.50;13.07;;;0.10;99.90;;;;;;5061755;28;20048;-78
2021/12/06 01:49:22;;;;;;;28.90;12.00;;;0.20;99.90;;;;;;5044684;28;20029;-80
2021/12/06 01:51:51;;;;;;;28.70;11.57;;;0.10;99.90;;;;;;5064916;28;20094;-80
2021/12/06 01:54:17;;;;;;;25.25;11.20;;;0.10;99.90;;;;;;5043798;28;20033;-81
2021/12/06 01:56:44;;;;;;;32.00;11.80;;;0.20;99.90;;;;;;5047367;28;20055;-79
2021/12/06 01:59:10;;;;;;;29.05;12.25;;;0.20;99.90;;;;;;5059791;28;20029;-81
2021/12/06 02:01:37;;;;;;;34.47;12.45;;;0.10;99.90;;;;;;5045822;28;20119;-80
2021/12/06 02:04:03;;;;;;;140.93;21.67;;;0.10;99.90;;;;;;5060842;28;20064;-81
2021/12/06 02:06:29;;;;;;;35.88;12.85;;;0.20;99.90;;;;;;5063670;28;20037;-80
2021/12/06 02:08:55;;;;;;;31.45;12.95;;;0.00;99.90;;;;;;5063428;28;20116;-82
2021/12/06 02:11:24;;;;;;;29.58;12.75;;;0.00;99.90;;;;;;5066559;28;20510;-81
2021/12/06 02:14:06;;;;;;;34.55;13.80;;;-0.10;99.90;;;;;;5065566;28;20021;-84
2021/12/06 02:16:53;;;;;;;30.67;12.40;;;-0.10;99.90;;;;;;5064754;28;20089;-82
2021/12/06 02:19:19;;;;;;;26.52;10.82;;;-0.10;99.90;;;;;;5049714;28;20104;-82
2021/12/06 02:21:46;;;;;;;31.95;12.23;;;-0.10;99.90;;;;;;5065233;28;20476;-82
2021/12/06 02:24:12;;;;;;;33.55;14.90;;;-0.10;99.90;;;;;;5045826;28;20103;-79
2021/12/06 02:26:42;;;;;;;27.00;11.32;;;-0.20;99.90;;;;;;5044541;28;20152;-80
2021/12/06 02:29:08;;;;;;;35.65;12.60;;;-0.20;99.90;;;;;;5063453;28;20085;-80
2021/12/06 02:31:35;;;;;;;31.23;12.70;;;-0.30;99.90;;;;;;5062040;28;20029;-81
2021/12/06 02:34:01;;;;;;;34.47;13.73;;;-0.30;99.90;;;;;;5064103;28;20514;-81
2021/12/06 02:36:28;;;;;;;41.30;13.55;;;-0.30;99.90;;;;;;5065606;28;20033;-84
2021/12/06 02:38:53;;;;;;;30.15;11.20;;;-0.30;99.90;;;;;;5043240;28;20078;-79
2021/12/06 02:41:19;;;;;;;32.50;11.45;;;-0.40;99.90;;;;;;5062828;28;20092;-81
2021/12/06 02:43:47;;;;;;;31.73;11.50;;;-0.40;99.90;;;;;;5062291;28;20033;-81
2021/12/06 02:46:13;;;;;;;35.72;12.60;;;-0.40;99.90;;;;;;5064016;28;20041;-81
2021/12/06 02:48:39;;;;;;;46.08;15.93;;;-0.30;99.90;;;;;;5064190;28;20159;-79
2021/12/06 02:51:06;;;;;;;40.40;11.85;;;-0.30;99.90;;;;;;5042505;28;20415;-82
2021/12/06 02:53:35;;;;;;;43.67;12.80;;;-0.40;99.90;;;;;;5063805;28;20096;-82
2021/12/06 02:56:04;;;;;;;47.47;14.40;;;-0.40;99.90;;;;;;5065996;28;20095;-81
2021/12/06 03:01:08;;;;;;;39.42;13.13;;;-0.50;99.90;;;;;;5042196;28;20035;-81
2021/12/06 03:03:34;;;;;;;45.75;14.50;;;-0.50;99.90;;;;;;5042098;28;20025;-81
2021/12/06 03:05:59;;;;;;;42.75;13.85;;;-0.60;99.90;;;;;;5062865;28;20083;-83
2021/12/06 03:08:56;;;;;;;37.28;14.20;;;-0.60;99.90;;;;;;5062294;28;20452;-81
2021/12/06 03:11:29;;;;;;;40.70;14.40;;;-0.70;99.90;;;;;;5064108;28;20033;-80
2021/12/06 03:13:55;;;;;;;38.65;15.32;;;-0.70;99.90;;;;;;5063885;28;20483;-81
2021/12/06 03:16:21;;;;;;;36.42;15.02;;;-0.90;99.90;;;;;;5058419;28;20124;-81
2021/12/06 03:18:49;;;;;;;45.17;16.35;;;-1.00;99.90;;;;;;5042305;28;20082;-82
2021/12/06 03:21:16;;;;;;;42.70;14.18;;;-1.00;99.90;;;;;;5063867;28;20021;-80
2021/12/06 03:23:42;;;;;;;41.92;15.65;;;-1.10;99.90;;;;;;5062660;28;20042;-82
2021/12/06 03:26:08;;;;;;;31.38;12.65;;;-1.10;99.90;;;;;;5061342;28;20056;-81
2021/12/06 03:28:39;;;;;;;35.92;12.52;;;-0.90;99.90;;;;;;5044662;28;20031;-81
2021/12/06 03:31:06;;;;;;;40.10;16.13;;;-0.90;99.90;;;;;;5058045;28;20041;-80
2021/12/06 03:33:35;;;;;;;38.97;12.60;;;-0.80;99.90;;;;;;5060864;28;20099;-83
2021/12/06 03:36:05;;;;;;;38.83;14.52;;;-0.80;99.90;;;;;;5063847;28;20025;-81
2021/12/06 03:38:31;;;;;;;36.67;12.40;;;-0.70;99.90;;;;;;5066645;28;20082;-81
2021/12/06 03:40:57;;;;;;;35.35;13.23;;;-0.70;99.90;;;;;;5068983;28;20126;-84
2021/12/06 03:43:23;;;;;;;43.72;15.18;;;-0.70;99.90;;;;;;5066672;28;20061;-83
2021/12/06 03:45:49;;;;;;;40.15;14.98;;;-0.60;99.90;;;;;;5040662;28;20100;-79
2021/12/06 03:48:15;;;;;;;43.83;14.43;;;-0.60;99.90;;;;;;5026191;28;20133;-81
2021/12/06 03:50:41;;;;;;;36.92;13.30;;;-0.50;99.90;;;;;;5026487;28;20112;-81
2021/12/06 03:53:07;;;;;;;44.55;15.18;;;-0.50;99.90;;;;;;5042885;28;20034;-82
2021/12/06 03:55:32;;;;;;;45.88;14.45;;;-0.50;99.90;;;;;;5023037;28;20025;-79
2021/12/06 03:57:58;;;;;;;53.97;15.70;;;-0.40;99.90;;;;;;5025764;28;20041;-81
2021/12/06 04:00:24;;;;;;;48.33;16.08;;;-0.40;99.90;;;;;;5025079;28;20517;-80
2021/12/06 04:02:50;;;;;;;41.28;14.70;;;-0.50;99.90;;;;;;5023777;28;20025;-80
2021/12/06 04:05:16;;;;;;;42.50;15.05;;;-0.40;99.90;;;;;;5027159;28;20148;-81
2021/12/06 04:07:42;;;;;;;44.13;15.75;;;-0.40;99.90;;;;;;5023432;28;20037;-83
2021/12/06 04:10:09;;;;;;;39.42;13.57;;;-0.40;99.90;;;;;;5027049;28;20025;-80
2021/12/06 04:12:36;;;;;;;37.92;13.93;;;-0.20;99.90;;;;;;5023401;28;20026;-80
2021/12/06 04:15:04;;;;;;;39.65;16.25;;;-0.30;99.90;;;;;;5025719;28;20018;-81
2021/12/06 04:17:30;;;;;;;38.72;14.25;;;-0.30;99.90;;;;;;5038493;28;20073;-80
2021/12/06 04:19:56;;;;;;;53.63;15.15;;;-0.40;99.90;;;;;;5027158;28;20570;-81
2021/12/06 04:22:22;;;;;;;42.03;15.82;;;-0.40;99.90;;;;;;5027063;28;20033;-78
2021/12/06 04:24:48;;;;;;;51.60;17.30;;;-0.50;99.90;;;;;;5027118;28;20040;-79
2021/12/06 04:27:15;;;;;;;50.88;18.35;;;-0.50;99.90;;;;;;5027691;28;20026;-81
2021/12/06 04:29:47;;;;;;;51.58;15.60;;;-0.60;99.90;;;;;;5024216;28;20090;-81
2021/12/06 04:32:14;;;;;;;39.97;14.27;;;-0.60;99.90;;;;;;5041064;28;20126;-81
2021/12/06 04:34:40;;;;;;;41.05;14.23;;;-0.60;99.90;;;;;;5025980;28;20104;-82
2021/12/06 04:37:06;;;;;;;32.38;13.63;;;-0.50;99.90;;;;;;5022611;28;20038;-82
2021/12/06 04:39:33;;;;;;;38.22;14.75;;;-0.40;99.90;;;;;;5028009;28;20077;-81
2021/12/06 04:41:59;;;;;;;39.80;14.73;;;-0.40;99.90;;;;;;5015788;28;20041;-80
2021/12/06 04:44:25;;;;;;;46.42;14.32;;;-0.40;99.90;;;;;;5026978;28;20102;-80
2021/12/06 04:46:50;;;;;;;48.88;15.73;;;-0.30;99.90;;;;;;5048774;28;20029;-80
2021/12/06 04:49:16;;;;;;;47.90;17.48;;;-0.40;99.90;;;;;;5048176;28;20530;-83
2021/12/06 04:51:47;;;;;;;47.90;17.40;;;-0.40;99.90;;;;;;5066464;28;20052;-82
2021/12/06 04:54:15;;;;;;;44.95;15.32;;;-0.40;99.90;;;;;;5066077;28;20070;-81
2021/12/06 04:56:55;;;;;;;46.53;16.25;;;-0.50;99.90;;;;;;5069104;28;20031;-80
2021/12/06 04:59:38;;;;;;;49.47;15.37;;;-0.30;99.90;;;;;;5045589;28;20499;-83
2021/12/06 05:02:14;;;;;;;47.45;17.38;;;-0.30;99.90;;;;;;5060934;28;20079;-81
2021/12/06 05:04:47;;;;;;;63.05;20.20;;;-0.20;99.90;;;;;;5044997;28;20029;-83
2021/12/06 05:07:21;;;;;;;56.90;19.25;;;-0.30;99.90;;;;;;5045456;28;20427;-81
2021/12/06 05:09:48;;;;;;;64.80;20.10;;;-0.30;99.90;;;;;;5045357;28;20052;-82
2021/12/06 05:12:16;;;;;;;49.72;17.13;;;-0.40;99.90;;;;;;5063576;28;20032;-83
2021/12/06 05:14:42;;;;;;;58.13;20.42;;;-0.30;99.90;;;;;;5043958;28;20513;-82
2021/12/06 05:17:08;;;;;;;52.55;19.98;;;-0.40;99.90;;;;;;5060880;28;20116;-79
2021/12/06 05:19:34;;;;;;;54.85;16.42;;;-0.40;99.90;;;;;;5065717;28;20052;-79
2021/12/06 05:22:00;;;;;;;53.80;18.38;;;-0.40;99.90;;;;;;5064888;28;20044;-81
2021/12/06 05:24:26;;;;;;;50.08;18.33;;;-0.40;99.90;;;;;;5044415;28;20025;-78
2021/12/06 05:26:51;;;;;;;56.92;20.75;;;-0.40;99.90;;;;;;5045801;28;20086;-83
2021/12/06 05:29:25;;;;;;;48.42;18.95;;;-0.20;99.90;;;;;;5061033;28;20029;-80
2021/12/06 05:31:56;;;;;;;53.63;18.75;;;-0.10;99.90;;;;;;5065846;28;20036;-84
2021/12/06 05:34:29;;;;;;;;;;;-0.10;99.90;;;;;;5068609;28;20017;-82
2021/12/06 05:36:55;;;;;;;54.47;15.95;;;-0.10;99.90;;;;;;5047702;28;19917;-82
2021/12/06 05:39:21;;;;;;;60.72;19.52;;;-0.20;99.90;;;;;;5065586;28;20027;-81
2021/12/06 05:41:47;;;;;;;60.30;19.13;;;-0.20;99.90;;;;;;5063459;28;20021;-86
2021/12/06 05:44:13;;;;;;;82.45;24.23;;;-0.20;99.90;;;;;;5061163;28;20159;-84
2021/12/06 05:46:39;;;;;;;61.97;21.40;;;-0.30;99.90;;;;;;5081704;28;20432;-81
2021/12/06 05:49:04;;;;;;;81.35;21.77;;;-0.30;99.90;;;;;;5079299;28;20361;-82
2021/12/06 05:51:30;;;;;;;56.38;17.67;;;-0.30;99.90;;;;;;5058159;28;20039;-85
2021/12/06 05:53:56;;;;;;;63.97;20.45;;;-0.30;99.90;;;;;;5067656;28;20035;-86
2021/12/06 05:56:22;;;;;;;56.55;19.48;;;-0.30;99.90;;;;;;5054587;28;20032;-83
2021/12/06 05:58:48;;;;;;;59.00;18.92;;;-0.30;99.90;;;;;;5066703;28;20055;-82
2021/12/06 06:01:14;;;;;;;60.53;18.67;;;-0.30;99.90;;;;;;5046769;28;20046;-84
2021/12/06 06:03:40;;;;;;;50.63;17.40;;;-0.20;99.90;;;;;;5056084;28;20052;-82
2021/12/06 06:06:06;;;;;;;47.65;19.38;;;-0.20;99.90;;;;;;5066212;28;20032;-83
2021/12/06 06:08:32;;;;;;;54.50;17.35;;;-0.30;99.90;;;;;;5046193;28;20032;-85
2021/12/06 06:10:58;;;;;;;58.38;18.55;;;-0.30;99.90;;;;;;5043928;28;20475;-88
2021/12/06 06:13:24;;;;;;;55.50;18.70;;;-0.30;99.90;;;;;;5057385;28;20147;-84
2021/12/06 06:15:51;;;;;;;50.88;18.25;;;-0.30;99.90;;;;;;5066621;28;20036;-80
2021/12/06 06:18:20;;;;;;;47.65;16.52;;;-0.30;99.90;;;;;;5063808;28;20510;-82
2021/12/06 06:20:51;;;;;;;58.75;19.52;;;-0.30;99.90;;;;;;5063838;28;20479;-83
2021/12/06 06:23:17;;;;;;;49.40;17.05;;;-0.40;99.90;;;;;;5059773;28;20105;-82
2021/12/06 06:25:43;;;;;;;53.45;17.58;;;-0.30;99.90;;;;;;5060806;28;20072;-86
2021/12/06 06:28:09;;;;;;;50.78;16.13;;;-0.30;99.90;;;;;;5050014;28;20033;-89
2021/12/06 06:30:35;;;;;;;61.00;20.02;;;-0.30;99.90;;;;;;5062043;28;20043;-90
2021/12/06 06:33:01;;;;;;;53.03;19.05;;;-0.30;99.90;;;;;;5065570;28;20029;-87
2021/12/06 06:35:27;;;;;;;60.15;21.80;;;-0.40;99.90;;;;;;5067728;28;20032;-89
2021/12/06 06:37:53;;;;;;;54.08;20.23;;;-0.40;99.90;;;;;;5072404;28;20450;-87
2021/12/06 06:40:19;;;;;;;52.85;21.27;;;-0.30;99.90;;;;;;5067965;28;20404;-87
2021/12/06 06:42:45;;;;;;;56.08;19.45;;;-0.40;99.90;;;;;;5060515;28;20399;-88
2021/12/06 06:45:14;;;;;;;53.55;20.25;;;-0.30;99.90;;;;;;5061298;28;20064;-87
2021/12/06 06:47:41;;;;;;;55.42;22.33;;;-0.30;99.90;;;;;;5057720;28;20033;-87
2021/12/06 06:50:07;;;;;;;56.85;19.58;;;-0.30;99.90;;;;;;5043677;28;20033;-86
2021/12/06 06:52:33;;;;;;;56.65;18.40;;;-0.30;99.90;;;;;;5063499;28;20017;-85
2021/12/06 06:55:00;;;;;;;76.72;21.77;;;-0.30;99.90;;;;;;5061690;28;20024;-87
2021/12/06 06:57:26;;;;;;;56.53;17.58;;;-0.30;99.90;;;;;;5059556;28;20082;-86
2021/12/06 06:59:52;;;;;;;54.97;19.70;;;-0.30;99.90;;;;;;5065597;28;20104;-87
2021/12/06 07:02:17;;;;;;;53.30;18.10;;;-0.30;99.90;;;;;;5061023;28;20571;-86
2021/12/06 07:04:44;;;;;;;56.15;19.13;;;-0.30;99.90;;;;;;5062969;28;20033;-86
2021/12/06 07:07:10;;;;;;;64.95;19.35;;;-0.30;99.90;;;;;;5063339;28;20031;-85
2021/12/06 07:09:36;;;;;;;56.35;18.90;;;-0.20;99.90;;;;;;5046069;28;20098;-86
2021/12/06 07:12:02;;;;;;;65.57;20.77;;;-0.20;99.90;;;;;;5046232;28;20560;-85
2021/12/06 07:14:28;;;;;;;51.75;17.77;;;-0.20;99.90;;;;;;5048840;28;20067;-85
2021/12/06 07:16:54;;;;;;;57.78;19.58;;;-0.10;99.90;;;;;;5045400;28;20060;-86
2021/12/06 07:19:20;;;;;;;58.90;18.50;;;-0.10;99.90;;;;;;5049032;28;20070;-85
2021/12/06 07:21:45;;;;;;;56.45;21.17;;;-0.10;99.90;;;;;;5044898;28;20048;-87
2021/12/06 07:24:11;;;;;;;57.85;18.33;;;-0.10;99.90;;;;;;5048888;28;20025;-85
2021/12/06 07:26:38;;;;;;;46.95;17.83;;;-0.10;99.90;;;;;;5066610;28;20021;-87
2021/12/06 07:29:04;;;;;;;55.35;19.05;;;-0.10;99.90;;;;;;5063027;28;20392;-87
2021/12/06 07:31:30;;;;;;;54.50;17.90;;;-0.10;99.90;;;;;;5049304;28;20029;-87
2021/12/06 07:33:57;;;;;;;60.85;20.52;;;0.10;99.90;;;;;;5067293;28;20046;-87
2021/12/06 07:36:25;;;;;;;61.53;19.48;;;0.10;99.90;;;;;;5031010;28;20033;-87
2021/12/06 07:38:51;;;;;;;56.83;19.73;;;0.20;99.90;;;;;;5048026;28;20037;-86
2021/12/06 07:41:19;;;;;;;63.97;19.83;;;0.20;99.90;;;;;;5046295;28;20440;-85
2021/12/06 07:43:46;;;;;;;55.00;19.15;;;0.10;99.90;;;;;;5029920;28;20123;-84
2021/12/06 07:46:12;;;;;;;59.45;17.50;;;0.20;99.90;;;;;;5063136;28;20068;-86
2021/12/06 07:48:38;;;;;;;53.25;21.10;;;0.30;99.90;;;;;;5048628;28;20503;-86
2021/12/06 07:51:05;;;;;;;61.70;21.08;;;0.20;99.90;;;;;;5046131;28;20116;-86
2021/12/06 07:53:33;;;;;;;45.67;18.20;;;0.30;99.90;;;;;;5045368;28;20028;-86
2021/12/06 07:55:59;;;;;;;55.38;20.38;;;0.50;99.90;;;;;;5068867;28;20052;-85
2021/12/06 07:58:26;;;;;;;52.70;20.33;;;0.60;99.90;;;;;;5064722;28;20046;-85
2021/12/06 08:00:53;;;;;;;68.63;22.88;;;0.60;99.90;;;;;;5066820;28;20041;-85
2021/12/06 08:03:22;;;;;;;55.88;19.48;;;0.40;99.90;;;;;;5066072;28;20523;-86
2021/12/06 08:05:50;;;;;;;61.08;20.42;;;0.40;99.90;;;;;;5065817;28;20039;-85
2021/12/06 08:08:23;;;;;;;60.35;19.23;;;0.30;99.90;;;;;;5048828;28;20039;-86
2021/12/06 08:10:51;;;;;;;63.13;20.65;;;0.30;99.90;;;;;;5066020;28;20029;-85
2021/12/06 08:13:20;;;;;;;63.63;20.13;;;0.40;99.90;;;;;;5065507;28;20095;-85
2021/12/06 08:15:48;;;;;;;58.03;25.27;;;0.60;99.90;;;;;;5067045;28;20051;-85
2021/12/06 08:18:13;;;;;;;69.68;25.40;;;0.80;99.90;;;;;;5066721;28;20157;-86
2021/12/06 08:20:41;;;;;;;67.22;25.83;;;0.90;99.90;;;;;;5044858;28;20128;-87
2021/12/06 08:23:07;;;;;;;58.85;20.52;;;0.70;99.90;;;;;;5062998;28;20032;-85
2021/12/06 08:25:34;;;;;;;59.67;21.80;;;0.60;99.90;;;;;;5066565;28;20044;-86
2021/12/06 08:28:00;;;;;;;64.68;19.40;;;0.80;99.90;;;;;;5050813;28;20127;-86
2021/12/06 08:30:26;;;;;;;60.25;20.77;;;0.80;99.90;;;;;;5063560;28;20104;-85
2021/12/06 08:33:04;;;;;;;57.40;20.10;;;0.90;99.90;;;;;;5050864;28;20032;-86
2021/12/06 08:35:30;;;;;;;61.28;22.10;;;1.00;99.90;;;;;;5065824;28;20017;-85
2021/12/06 08:37:59;;;;;;;64.53;20.08;;;1.00;99.90;;;;;;5063917;28;20032;-85
2021/12/06 08:40:27;;;;;;;61.80;19.75;;;0.90;99.90;;;;;;5064697;28;20597;-85
2021/12/06 08:42:53;;;;;;;72.13;24.90;;;0.90;99.90;;;;;;5066392;28;20492;-85
2021/12/06 08:45:19;;;;;;;72.40;22.48;;;0.80;99.90;;;;;;5059948;28;20578;-87
2021/12/06 08:47:45;;;;;;;51.17;18.65;;;0.80;99.90;;;;;;5042553;28;20029;-84
2021/12/06 08:50:17;;;;;;;55.05;19.98;;;0.80;99.90;;;;;;5044264;28;20500;-85
2021/12/06 08:52:42;;;;;;;63.53;20.33;;;0.90;99.90;;;;;;5041094;28;20033;-85
2021/12/06 08:55:09;;;;;;;67.43;23.67;;;1.00;99.90;;;;;;5043207;28;20078;-86
2021/12/06 08:57:35;;;;;;;59.90;20.80;;;1.20;99.90;;;;;;5041718;28;20034;-85
2021/12/06 09:00:05;;;;;;;47.63;16.98;;;1.40;99.90;;;;;;5046198;28;20033;-86
2021/12/06 09:02:31;;;;;;;57.50;19.38;;;1.50;99.90;;;;;;5060943;28;20124;-85
2021/12/06 09:04:57;;;;;;;70.78;23.02;;;1.50;99.90;;;;;;5049376;28;20112;-84
2021/12/06 09:07:24;;;;;;;72.03;26.85;;;1.20;99.90;;;;;;5046046;28;20059;-85
2021/12/06 09:09:50;;;;;;;64.10;22.27;;;1.20;99.90;;;;;;5045298;28;20021;-84
2021/12/06 09:12:34;;;;;;;63.65;22.85;;;1.30;99.90;;;;;;5039516;28;20507;-84
2021/12/06 09:15:05;;;;;;;48.92;17.23;;;1.30;99.90;;;;;;5062004;28;20508;-84
2021/12/06 09:17:31;;;;;;;50.28;17.55;;;1.30;99.90;;;;;;5044463;28;20103;-84
2021/12/06 09:19:56;;;;;;;52.13;19.65;;;1.40;99.90;;;;;;5040327;28;20500;-85
2021/12/06 09:22:22;;;;;;;50.00;19.35;;;1.40;99.90;;;;;;5034403;28;20520;-83
2021/12/06 09:24:49;;;;;;;53.88;21.77;;;1.60;99.90;;;;;;5041059;28;20132;-84
2021/12/06 09:27:16;;;;;;;51.25;19.60;;;1.80;99.90;;;;;;5060022;28;20184;-84
2021/12/06 09:29:41;;;;;;;52.47;19.55;;;1.60;99.90;;;;;;5044134;28;20068;-84
2021/12/06 09:32:10;;;;;;;47.28;16.20;;;1.50;99.90;;;;;;5034434;28;20543;-88
2021/12/06 09:34:40;;;;;;;41.42;15.77;;;1.60;99.90;;;;;;5043581;28;20063;-91
2021/12/06 09:37:07;;;;;;;54.85;18.00;;;1.60;99.90;;;;;;5050391;28;20033;-84
2021/12/06 09:39:33;;;;;;;53.33;18.95;;;1.70;99.90;;;;;;5047459;28;20044;-84
2021/12/06 09:42:00;;;;;;;53.15;18.35;;;1.70;99.90;;;;;;5044722;28;20025;-81
2021/12/06 09:44:26;;;;;;;53.35;18.25;;;1.70;99.90;;;;;;5046841;28;20032;-83
2021/12/06 09:46:52;;;;;;;51.15;19.40;;;1.80;99.90;;;;;;5063553;28;20063;-83
2021/12/06 09:49:20;;;;;;;57.60;19.90;;;1.80;99.90;;;;;;5066027;28;20036;-85
2021/12/06 09:51:51;;;;;;;64.80;20.40;;;1.70;99.90;;;;;;5065710;28;20036;-84
2021/12/06 09:54:27;;;;;;;53.75;18.83;;;1.50;99.90;;;;;;5043427;28;20075;-84
2021/12/06 09:56:54;;;;;;;48.88;17.88;;;1.90;99.90;;;;;;5049316;28;20511;-90
2021/12/06 09:59:24;;;;;;;46.28;16.95;;;2.00;99.90;;;;;;5075484;28;20047;-86
2021/12/06 10:01:59;;;;;;;45.30;17.57;;;2.00;99.90;;;;;;5065495;28;20044;-85
2021/12/06 10:04:27;;;;;;;49.63;16.83;;;2.40;99.90;;;;;;5080461;28;20036;-82
2021/12/06 10:06:54;;;;;;;45.88;17.75;;;2.50;99.90;;;;;;5087340;28;20033;-86
2021/12/06 10:09:21;;;;;;;47.38;19.17;;;2.80;99.90;;;;;;5050275;28;20029;-85
2021/12/06 10:11:47;;;;;;;54.40;17.77;;;2.80;99.90;;;;;;5061742;28;20140;-82
2021/12/06 10:14:15;;;;;;;45.72;16.92;;;2.80;99.90;;;;;;5061754;28;20053;-82
2021/12/06 10:16:42;;;;;;;57.38;19.40;;;2.80;99.90;;;;;;5060484;28;20044;-82
2021/12/06 10:19:08;;;;;;;44.45;17.75;;;2.80;99.90;;;;;;5060795;28;20024;-83
2021/12/06 10:21:36;;;;;;;40.35;16.38;;;3.00;99.90;;;;;;5046225;28;20020;-82
2021/12/06 10:24:06;;;;;;;39.55;16.02;;;3.10;99.90;;;;;;5060241;28;20062;-83
2021/12/06 10:26:32;;;;;;;45.23;16.33;;;3.20;99.90;;;;;;5045850;28;20029;-83
2021/12/06 10:29:03;;;;;;;40.97;15.25;;;3.30;99.90;;;;;;5060674;28;20722;-85
2021/12/06 10:31:31;;;;;;;43.50;18.30;;;3.20;99.90;;;;;;5065090;28;20031;-83
2021/12/06 10:33:57;;;;;;;43.08;18.17;;;3.20;99.90;;;;;;5063754;28;20028;-85
2021/12/06 10:36:25;;;;;;;34.47;15.85;;;3.10;99.90;;;;;;5062853;28;20048;-86
2021/12/06 10:39:00;;;;;;;38.58;14.35;;;3.00;99.90;;;;;;5060194;28;20032;-89
2021/12/06 10:41:26;;;;;;;42.38;14.75;;;3.10;99.90;;;;;;5062502;28;20071;-84
2021/12/06 10:44:06;;;;;;;36.40;16.35;;;3.40;99.90;;;;;;5063622;28;20443;-85
2021/12/06 10:46:33;;;;;;;36.83;15.85;;;3.40;99.90;;;;;;5062343;28;20577;-89
2021/12/06 10:49:03;;;;;;;32.80;13.68;;;3.70;99.90;;;;;;5061083;28;20044;-84
2021/12/06 10:51:29;;;;;;;35.53;12.27;;;3.80;99.90;;;;;;5063797;28;20032;-86
2021/12/06 10:54:02;;;;;;;29.85;12.70;;;3.80;99.90;;;;;;5044302;28;20044;-84
2021/12/06 10:56:40;;;;;;;23.77;9.45;;;3.90;99.90;;;;;;5062027;28;20081;-84
2021/12/06 10:59:18;;;;;;;33.72;11.57;;;3.70;99.90;;;;;;5060253;28;20028;-84
2021/12/06 11:01:44;;;;;;;32.92;12.95;;;3.60;99.90;;;;;;5063413;28;20029;-85
2021/12/06 11:04:16;;;;;;;30.58;12.85;;;3.50;99.90;;;;;;5062832;28;20020;-83
2021/12/06 11:06:45;;;;;;;32.58;13.77;;;3.50;99.90;;;;;;5060432;28;20029;-83
2021/12/06 11:09:38;;;;;;;31.67;13.63;;;3.30;99.90;;;;;;5043346;28;20145;-84
2021/12/06 11:12:07;;;;;;;35.50;13.10;;;3.60;99.90;;;;;;5059943;28;20112;-83
2021/12/06 11:14:41;;;;;;;22.60;10.23;;;3.50;99.90;;;;;;5062211;28;20017;-82
2021/12/06 11:17:19;;;;;;;22.70;10.20;;;3.50;99.90;;;;;;5041537;28;20067;-83
2021/12/06 11:19:46;;;;;;;30.50;12.40;;;3.60;99.90;;;;;;5059864;28;20048;-83
2021/12/06 11:22:17;;;;;;;25.83;10.25;;;3.90;99.90;;;;;;5061136;28;20385;-82
2021/12/06 11:24:46;;;;;;;21.23;8.63;;;4.10;99.90;;;;;;5062531;28;20140;-83
2021/12/06 11:27:20;;;;;;;25.27;8.95;;;4.40;99.90;;;;;;5063328;28;20031;-83
2021/12/06 11:30:03;;;;;;;19.40;7.47;;;4.40;99.90;;;;;;5059808;28;20079;-83
2021/12/06 11:32:31;;;;;;;19.23;8.38;;;4.30;99.90;;;;;;5061144;28;20064;-83
2021/12/06 11:35:16;;;;;;;24.20;7.68;;;4.10;99.90;;;;;;5043862;28;20503;-83
2021/12/06 11:37:47;;;;;;;21.00;9.30;;;3.90;99.90;;;;;;5060064;28;20037;-85
2021/12/06 11:40:23;;;;;;;18.38;6.75;;;3.80;99.90;;;;;;5061336;28;20025;-85
2021/12/06 11:42:53;;;;;;;13.23;6.30;;;4.10;99.90;;;;;;5042501;28;20033;-83
2021/12/06 11:45:43;;;;;;;16.70;5.97;;;4.10;99.90;;;;;;5062870;28;20037;-84
2021/12/06 11:48:12;;;;;;;16.55;7.50;;;4.20;99.90;;;;;;5057091;28;20036;-84
2021/12/06 11:50:45;;;;;;;14.48;5.72;;;4.20;99.90;;;;;;5059284;28;20013;-84
2021/12/06 11:53:11;;;;;;;14.05;5.32;;;4.30;99.90;;;;;;5053347;28;20473;-83
2021/12/06 11:55:45;;;;;;;19.42;7.35;;;4.30;99.90;;;;;;5045911;28;20040;-83
2021/12/06 11:58:27;;;;;;;16.85;6.25;;;4.50;99.90;;;;;;5067441;28;20057;-83
2021/12/06 12:01:38;;;;;;;16.42;7.05;;;4.60;99.80;;;;;;5045548;28;20045;-84
2021/12/06 12:04:06;;;;;;;;;;;4.50;98.10;;;;;;5040934;28;20106;-83
2021/12/06 12:07:00;;;;;;;10.98;4.90;;;4.40;98.20;;;;;;5048488;28;19913;-83
2021/12/06 12:09:29;;;;;;;11.10;4.35;;;4.50;99.40;;;;;;5063111;28;20052;-83
2021/12/06 12:12:04;;;;;;;13.90;5.50;;;5.30;95.90;;;;;;5064653;28;20108;-82
2021/12/06 12:14:46;;;;;;;14.40;5.07;;;5.20;94.20;;;;;;5065978;28;20034;-81
2021/12/06 12:17:15;;;;;;;19.00;8.88;;;5.10;97.10;;;;;;5067162;28;20044;-82
2021/12/06 12:19:42;;;;;;;17.65;8.30;;;4.80;97.60;;;;;;5066939;28;20064;-82
2021/12/06 12:22:09;;;;;;;15.45;7.22;;;4.60;98.30;;;;;;5087574;28;20051;-81
2021/12/06 12:24:39;;;;;;;20.38;10.00;;;4.40;98.70;;;;;;5093159;28;20096;-81
2021/12/06 12:27:21;;;;;;;21.95;10.85;;;4.00;99.90;;;;;;5069385;28;20032;-83
2021/12/06 12:29:48;;;;;;;22.90;9.75;;;4.00;99.90;;;;;;5063241;28;20040;-83
2021/12/06 12:32:15;;;;;;;16.90;6.95;;;3.90;99.90;;;;;;5061519;28;20029;-81
2021/12/06 12:34:45;;;;;;;16.55;7.13;;;3.80;99.90;;;;;;5048595;28;20037;-81
2021/12/06 12:37:12;;;;;;;15.75;7.35;;;3.70;99.90;;;;;;5063848;28;20026;-83
2021/12/06 12:39:39;;;;;;;19.35;8.40;;;3.60;99.90;;;;;;5042006;28;20132;-83
2021/12/06 12:42:08;;;;;;;21.75;8.95;;;3.60;99.90;;;;;;5044841;28;20037;-80
2021/12/06 12:44:46;;;;;;;24.48;10.57;;;3.50;99.90;;;;;;5063823;28;20048;-82
2021/12/06 12:47:24;;;;;;;24.42;11.07;;;3.50;99.90;;;;;;5063253;28;20396;-84
2021/12/06 12:49:57;;;;;;;20.75;9.68;;;3.20;99.90;;;;;;5061059;28;20021;-84
2021/12/06 12:52:45;;;;;;;24.80;10.98;;;3.10;99.90;;;;;;5045953;28;20033;-83
2021/12/06 12:55:40;;;;;;;22.55;9.63;;;3.10;99.90;;;;;;5056904;28;20052;-84
2021/12/06 12:58:19;;;;;;;26.10;8.02;;;3.00;99.90;;;;;;5062310;28;20040;-84